Pagrindinis puslapis
METAR-TAF:

METAR-TAF

Oro uostai :

Enontekiö, Suomija

platuma: 68-21-52N, ilguma: 023-25-39E, Aukštis: 308 m

Dabartinis oras

Ataskaita buvo paskelbta 30 minutes, ne 16:50 UTC
Vėjas 6 kt iš Rytų, svyruoja nuo Rytų/Šiaurės Rytų ir Pietryčių
Temperatūra -11°C
Drėgmė 78%
Slėgis 1006 hPa
Matomumas 10 km arba daugiau
Apsiniaukę ne aukštis 1900 ft
sniegas

METAR: EFET 291650Z AUTO 10006KT 070V130 9999 -SN OVC019 M11/M14 Q1006

Laikas: 19:20 (17:20 UTC)


TAF: trūkstamas

Orai ataskaitas ir orų prognozės (METAR, TAF).

turimą stotys yra geltonos ir raudonos taškus žemėlapyje.

Perkelti pele per norėdami pamatyti stoties vardą.

Tada spustelėkite, norėdami matyti oro stebėjimo ir prognozės.

Norėdami pakeisti žemėlapį: spustelėkite ant žalios mygtukų su juodo kryžiaus žemyn,; žalią mygtuką su brūkšneliu, jei norite nutolinti; arba žalių rodyklių gretimoms žemėlapius.


METAR-TAF: